createdAt,value
2022-08-19T00:00:12.135Z,118383.13
2022-08-19T00:01:14.555Z,111889.44
2022-08-19T00:02:28.531Z,122731.72
2022-08-19T00:03:30.772Z,121038.22
2022-08-19T00:04:37.252Z,120071.53
2022-08-19T00:05:41.436Z,130879.56
2022-08-19T00:06:45.884Z,130242.00
2022-08-19T00:07:49.747Z,125136.75
2022-08-19T00:08:52.343Z,127139.03
2022-08-19T00:09:54.747Z,130874.31
2022-08-19T00:10:59.119Z,135975.81
2022-08-19T00:12:02.178Z,135635.59
2022-08-19T00:13:05.218Z,133590.47
2022-08-19T00:14:10.725Z,124114.56
2022-08-19T00:15:16.428Z,126844.50
2022-08-19T00:16:26.147Z,135978.00
2022-08-19T00:17:28.899Z,139697.53
2022-08-19T00:18:31.953Z,127147.22
2022-08-19T00:19:35.333Z,117287.06
2022-08-19T00:20:41.352Z,112213.25
2022-08-19T00:21:44.244Z,125094.38
2022-08-19T00:22:48.821Z,132919.06
2022-08-19T00:23:51.402Z,138332.44
2022-08-19T00:24:53.575Z,123021.28
2022-08-19T00:25:57.335Z,97997.75
2022-08-19T00:27:25.657Z,92272.53
2022-08-19T00:28:22.138Z,98342.59
2022-08-19T00:29:26.061Z,90957.44
2022-08-19T00:30:28.964Z,94962.75
2022-08-19T00:31:32.125Z,87553.84
2022-08-19T00:32:35.293Z,95303.97
2022-08-19T00:33:37.806Z,112170.88
2022-08-19T00:34:40.192Z,112842.59
2022-08-19T00:35:42.375Z,116229.16
2022-08-19T00:36:44.738Z,113524.41
2022-08-19T00:37:49.210Z,96678.13
2022-08-19T00:38:53.847Z,85535.56
2022-08-19T00:39:56.941Z,83532.34
2022-08-19T00:40:59.698Z,91269.16
2022-08-19T00:42:02.859Z,95326.09
2022-08-19T00:43:10.893Z,100088.75
2022-08-19T00:44:28.379Z,105495.69
2022-08-19T00:45:36.567Z,117940.66
2022-08-19T00:46:42.058Z,116294.66
2022-08-19T00:47:45.942Z,123384.22
2022-08-19T00:48:48.122Z,117913.16
2022-08-19T00:49:54.988Z,116275.00
2022-08-19T00:50:57.702Z,105055.88
2022-08-19T00:52:13.524Z,104453.09
2022-08-19T00:53:21.187Z,111873.25
2022-08-19T00:54:29.125Z,120285.59
2022-08-19T00:55:34.582Z,101379.03
2022-08-19T00:56:37.790Z,102362.22
2022-08-19T00:57:45.607Z,102758.72
2022-08-19T00:58:47.806Z,109123.88
2022-08-19T01:00:01.448Z,106136.44
2022-08-19T01:01:05.536Z,111169.22
2022-08-19T01:02:08.300Z,106428.94
2022-08-19T01:03:14.355Z,103423.75
2022-08-19T01:04:16.505Z,109116.00
2022-08-19T01:05:23.287Z,107473.88
2022-08-19T01:06:27.271Z,107118.88
2022-08-19T01:07:35.958Z,109108.91
2022-08-19T01:08:40.685Z,110805.38
2022-08-19T01:09:43.010Z,108100.97
2022-08-19T01:10:54.584Z,104774.75
2022-08-19T01:11:57.262Z,98976.19
2022-08-19T01:13:01.906Z,87215.06
2022-08-19T01:14:05.090Z,92235.66
2022-08-19T01:15:10.988Z,90253.63
2022-08-19T01:16:13.962Z,98977.75
2022-08-19T01:17:17.159Z,100668.28
2022-08-19T01:18:21.597Z,100686.06
2022-08-19T01:19:44.285Z,101052.31
2022-08-19T01:20:47.654Z,99285.28
2022-08-19T01:22:20.022Z,96311.16
2022-08-19T01:23:43.367Z,102317.88
2022-08-19T01:24:49.825Z,97579.59
2022-08-19T01:25:54.620Z,89197.22
2022-08-19T01:26:58.198Z,90188.81
2022-08-19T01:28:03.050Z,94893.66
2022-08-19T01:29:13.252Z,96574.50
2022-08-19T01:30:28.103Z,100683.63
2022-08-19T01:31:33.453Z,110079.97
2022-08-19T01:32:35.991Z,112444.78
2022-08-19T01:33:39.184Z,107728.63
2022-08-19T01:34:41.877Z,108734.50
2022-08-19T01:35:44.251Z,113798.53
2022-08-19T01:36:48.343Z,107400.56
2022-08-19T01:37:59.546Z,100000.63
2022-08-19T01:39:06.451Z,107759.78
2022-08-19T01:40:09.727Z,117196.41
2022-08-19T01:41:13.381Z,117206.81
2022-08-19T01:42:15.670Z,120559.25
2022-08-19T01:43:19.990Z,120895.88
2022-08-19T01:44:24.959Z,117496.03
2022-08-19T01:45:29.133Z,100290.25
2022-08-19T01:46:33.057Z,94886.03
2022-08-19T01:47:38.766Z,92560.16
2022-08-19T01:48:43.275Z,94552.72
2022-08-19T01:49:45.440Z,98886.66
2022-08-19T01:50:48.663Z,102939.25
2022-08-19T01:51:54.712Z,101269.41
2022-08-19T01:53:06.210Z,105302.03
2022-08-19T01:54:12.487Z,108037.56
2022-08-19T01:55:19.400Z,108385.53
2022-08-19T01:56:21.759Z,108339.41
2022-08-19T01:57:24.108Z,109354.47
2022-08-19T01:58:33.442Z,105688.41
2022-08-19T01:59:37.421Z,111043.28
2022-08-19T02:00:40.034Z,107988.13
2022-08-19T02:01:42.341Z,107986.41
2022-08-19T02:02:44.716Z,105963.66
2022-08-19T02:03:47.055Z,105957.72
2022-08-19T02:04:49.589Z,106631.22
2022-08-19T02:06:00.579Z,103653.13
2022-08-19T02:07:02.699Z,115832.91
2022-08-19T02:08:05.526Z,109668.19
2022-08-19T02:09:09.266Z,104946.38
2022-08-19T02:10:16.549Z,91490.75
2022-08-19T02:11:21.945Z,86440.41
2022-08-19T02:12:24.266Z,87074.63
2022-08-19T02:13:27.908Z,83745.91
2022-08-19T02:14:30.085Z,83711.22
2022-08-19T02:15:33.036Z,83055.66
2022-08-19T02:16:37.149Z,81392.84
2022-08-19T02:17:40.121Z,69661.56
2022-08-19T02:18:42.297Z,68316.44
2022-08-19T02:19:44.519Z,64645.31
2022-08-19T02:20:48.430Z,63306.78
2022-08-19T02:21:52.451Z,61631.44
2022-08-19T02:22:54.789Z,56974.72
2022-08-19T02:23:57.841Z,55976.63
2022-08-19T02:25:00.023Z,57308.38
2022-08-19T02:26:02.169Z,59645.50
2022-08-19T02:27:05.725Z,63311.78
2022-08-19T02:28:08.949Z,64992.63
2022-08-19T02:29:11.205Z,74333.78
2022-08-19T02:30:17.065Z,70024.84
2022-08-19T02:31:21.848Z,77032.78
2022-08-19T02:32:23.986Z,79359.97
2022-08-19T02:33:26.183Z,82704.75
2022-08-19T02:34:28.407Z,84380.78
2022-08-19T02:35:30.596Z,87389.13
2022-08-19T02:36:32.773Z,73665.28
2022-08-19T02:37:54.368Z,75015.50
2022-08-19T02:38:56.631Z,75353.50
2022-08-19T02:39:59.718Z,76378.78
2022-08-19T02:41:11.911Z,79078.69
2022-08-19T02:42:14.073Z,84730.81
2022-08-19T02:43:16.609Z,85402.69
2022-08-19T02:44:30.847Z,86405.25
2022-08-19T02:45:40.425Z,85443.56
2022-08-19T02:46:44.397Z,89086.19
2022-08-19T02:47:46.607Z,88409.47
2022-08-19T02:48:51.407Z,82392.09
2022-08-19T02:49:53.594Z,78671.78
2022-08-19T02:50:56.504Z,76332.72
2022-08-19T02:51:58.899Z,78674.28
2022-08-19T02:53:01.201Z,77002.81
2022-08-19T02:54:05.037Z,72010.50
2022-08-19T02:55:08.164Z,70985.66
2022-08-19T02:56:10.337Z,69306.84
2022-08-19T02:57:12.516Z,70306.63
2022-08-19T02:58:15.849Z,67305.19
2022-08-19T02:59:18.011Z,70631.56
2022-08-19T03:00:25.108Z,76988.13
2022-08-19T03:01:33.239Z,77696.50
2022-08-19T03:02:35.506Z,83693.22
2022-08-19T03:03:38.679Z,80351.50
2022-08-19T03:04:40.849Z,81675.19
2022-08-19T03:05:47.033Z,84705.81
2022-08-19T03:07:07.128Z,87034.34
2022-08-19T03:08:14.567Z,85716.78
2022-08-19T03:09:18.080Z,83697.91
2022-08-19T03:10:20.261Z,82339.63
2022-08-19T03:11:31.462Z,81037.22
2022-08-19T03:12:37.406Z,78340.31
2022-08-19T03:13:39.631Z,79308.22
2022-08-19T03:14:42.057Z,78316.63
2022-08-19T03:15:46.887Z,78334.69
2022-08-19T03:16:51.697Z,77661.94
2022-08-19T03:17:53.918Z,77974.75
2022-08-19T03:19:00.015Z,68275.91
2022-08-19T03:20:02.395Z,65601.72
2022-08-19T03:21:05.451Z,68939.78
2022-08-19T03:22:08.757Z,69603.16
2022-08-19T03:23:13.423Z,66609.59
2022-08-19T03:24:16.820Z,68275.91
2022-08-19T03:25:19.012Z,70271.59
2022-08-19T03:26:21.343Z,70285.50
2022-08-19T03:27:23.533Z,76955.72
2022-08-19T03:28:30.573Z,75611.06
2022-08-19T03:29:33.166Z,73946.72
2022-08-19T03:31:41.442Z,70969.91
2022-08-19T03:32:33.246Z,79608.50
2022-08-19T03:33:36.343Z,78611.72
2022-08-19T03:34:38.877Z,80287.59
2022-08-19T03:35:41.037Z,75910.19
2022-08-19T03:36:43.276Z,73584.66
2022-08-19T03:37:45.516Z,74599.94
2022-08-19T03:38:50.717Z,79306.31
2022-08-19T03:39:58.564Z,89733.03
2022-08-19T03:41:04.610Z,88042.34
2022-08-19T03:42:31.930Z,91688.06
2022-08-19T03:43:29.552Z,94373.56
2022-08-19T03:44:33.400Z,93042.88
2022-08-19T03:45:35.560Z,93362.84
2022-08-19T03:46:37.808Z,93693.94
2022-08-19T03:47:44.538Z,94034.88
2022-08-19T03:48:48.099Z,85651.19
2022-08-19T03:49:50.374Z,75933.13
2022-08-19T03:50:52.548Z,74249.47
2022-08-19T03:51:56.946Z,69927.38
2022-08-19T03:52:59.092Z,69573.94
2022-08-19T03:54:04.287Z,63925.50
2022-08-19T03:55:07.055Z,57909.31
2022-08-19T03:56:11.089Z,54928.81
2022-08-19T03:57:13.364Z,53584.88
2022-08-19T03:58:15.523Z,57248.97
2022-08-19T03:59:22.318Z,59266.34
2022-08-19T04:00:24.490Z,64234.78
2022-08-19T04:01:34.745Z,65933.44
2022-08-19T04:02:37.468Z,63225.44
2022-08-19T04:03:40.011Z,58570.56
2022-08-19T04:04:44.157Z,61918.19
2022-08-19T04:05:47.616Z,62910.47
2022-08-19T04:06:51.664Z,63580.88
2022-08-19T04:07:53.886Z,66237.41
2022-08-19T04:08:58.842Z,66258.88
2022-08-19T04:10:01.260Z,70583.44
2022-08-19T04:11:08.875Z,71954.00
2022-08-19T04:12:11.058Z,67559.69
2022-08-19T04:13:13.606Z,57226.03
2022-08-19T04:14:20.178Z,47952.31
2022-08-19T04:15:22.339Z,51590.28
2022-08-19T04:16:35.314Z,55268.00
2022-08-19T04:17:37.573Z,58907.69
2022-08-19T04:18:41.191Z,59585.00
2022-08-19T04:19:43.974Z,61575.13
2022-08-19T04:21:59.600Z,69583.84
2022-08-19T04:23:01.846Z,71590.06
2022-08-19T04:24:05.137Z,72270.72
2022-08-19T04:25:07.547Z,74600.53
2022-08-19T04:26:15.138Z,72632.78
2022-08-19T04:27:17.503Z,79278.53
2022-08-19T04:28:19.723Z,78608.59
2022-08-19T04:29:26.358Z,78634.25
2022-08-19T04:30:28.706Z,80288.84
2022-08-19T04:31:36.825Z,79319.56
2022-08-19T04:32:39.699Z,81621.84
2022-08-19T04:33:42.527Z,79304.41
2022-08-19T04:35:03.262Z,79957.56
2022-08-19T04:36:07.326Z,82960.41
2022-08-19T04:37:13.649Z,79961.41
2022-08-19T04:38:18.168Z,72264.41
2022-08-19T04:39:47.283Z,64930.56
2022-08-19T04:41:10.757Z,64589.22
2022-08-19T04:42:32.450Z,68235.94
2022-08-19T04:43:35.990Z,66583.78
2022-08-19T04:44:38.966Z,70242.06
2022-08-19T04:45:48.766Z,73245.03
2022-08-19T04:46:52.281Z,69921.84
2022-08-19T04:48:19.793Z,68936.53
2022-08-19T04:49:25.807Z,77284.47
2022-08-19T04:50:28.042Z,77257.41
2022-08-19T04:51:32.223Z,74251.22
2022-08-19T04:52:35.077Z,75948.81
2022-08-19T04:53:38.835Z,80317.00
2022-08-19T04:54:41.348Z,82636.28
2022-08-19T04:55:43.854Z,83976.69
2022-08-19T04:56:46.036Z,85651.19
2022-08-19T04:57:49.040Z,86326.69
2022-08-19T04:58:54.473Z,85995.78
2022-08-19T04:59:58.360Z,86685.94
2022-08-19T05:01:01.435Z,88012.09
2022-08-19T05:02:05.114Z,87021.84
2022-08-19T05:03:08.294Z,87341.72
2022-08-19T05:04:11.108Z,89012.94
2022-08-19T05:05:14.535Z,87335.44
2022-08-19T05:06:20.359Z,81324.19
2022-08-19T05:07:22.574Z,82629.03
2022-08-19T05:08:31.469Z,75923.47
2022-08-19T05:09:57.818Z,74597.00
2022-08-19T05:10:58.389Z,72242.66
2022-08-19T05:12:01.354Z,67234.97
2022-08-19T05:13:04.085Z,64906.44
2022-08-19T05:14:10.183Z,63601.97
2022-08-19T05:15:12.724Z,65907.38
2022-08-19T05:16:16.807Z,63569.84
2022-08-19T05:17:27.911Z,56233.34
2022-08-19T05:18:49.941Z,55573.31
2022-08-19T05:20:10.625Z,61618.34
2022-08-19T05:21:34.281Z,62278.56
2022-08-19T05:22:36.806Z,67258.38
2022-08-19T05:23:39.861Z,65258.09
2022-08-19T05:25:02.392Z,64263.19
2022-08-19T05:26:05.141Z,72622.44
2022-08-19T05:27:08.353Z,73326.44
2022-08-19T05:28:10.834Z,77000.38
2022-08-19T05:29:17.530Z,76035.72
2022-08-19T05:30:24.399Z,84392.91
2022-08-19T05:31:43.225Z,89113.22
2022-08-19T05:32:45.731Z,86436.28
2022-08-19T05:33:48.771Z,88135.88
2022-08-19T05:34:51.161Z,95862.34
2022-08-19T05:35:53.560Z,103259.63
2022-08-19T05:36:58.649Z,95252.94
2022-08-19T05:38:01.016Z,108019.34
2022-08-19T05:39:04.725Z,109061.59
2022-08-19T05:40:07.933Z,112767.28
2022-08-19T05:41:11.502Z,116155.25
2022-08-19T05:42:13.996Z,109759.84
2022-08-19T05:43:16.765Z,118195.50
2022-08-19T05:44:21.029Z,116186.13
2022-08-19T05:45:23.383Z,120255.53
2022-08-19T05:46:27.941Z,120255.53
2022-08-19T05:47:30.786Z,124668.56
2022-08-19T05:48:36.842Z,108809.63
2022-08-19T05:49:40.282Z,121014.81
2022-08-19T05:50:42.862Z,136612.13
2022-08-19T05:51:47.225Z,135278.97
2022-08-19T05:52:51.683Z,135330.38
2022-08-19T05:53:55.301Z,147370.56
2022-08-19T05:54:59.528Z,150331.88
2022-08-19T05:56:19.440Z,150470.88
2022-08-19T05:57:24.994Z,150402.63
2022-08-19T05:58:28.256Z,150305.06
2022-08-19T05:59:30.997Z,150383.16
2022-08-19T06:00:35.232Z,150488.00
2022-08-19T06:01:39.871Z,150508.69
2022-08-19T06:02:42.599Z,150475.75
2022-08-19T06:03:45.723Z,150518.47
2022-08-19T06:04:49.261Z,150446.50
2022-08-19T06:05:52.291Z,150495.28
2022-08-19T06:06:55.946Z,150575.81
2022-08-19T06:08:02.354Z,150608.75
2022-08-19T06:09:06.510Z,150649.03
2022-08-19T06:10:11.031Z,150599.00
2022-08-19T06:11:19.646Z,150680.75
2022-08-19T06:12:31.451Z,150680.75
2022-08-19T06:13:35.233Z,150736.81
2022-08-19T06:14:41.715Z,150772.25
2022-08-19T06:15:45.334Z,150811.34
2022-08-19T06:16:48.127Z,150878.44
2022-08-19T06:17:50.321Z,150832.06
2022-08-19T06:18:53.778Z,150917.56
2022-08-19T06:19:55.946Z,150954.16
2022-08-19T06:20:58.127Z,150922.44
2022-08-19T06:22:01.663Z,151043.28
2022-08-19T06:23:04.757Z,151121.47
2022-08-19T06:24:09.477Z,151073.81
2022-08-19T06:25:12.549Z,151272.97
2022-08-19T06:26:16.322Z,151396.31
2022-08-19T06:27:18.493Z,151494.13
2022-08-19T06:28:21.166Z,151623.75
2022-08-19T06:29:25.370Z,151787.63
2022-08-19T06:30:28.297Z,151623.75
2022-08-19T06:31:32.234Z,151684.88
2022-08-19T06:32:34.791Z,151660.41
2022-08-19T06:33:38.301Z,151680.00
2022-08-19T06:34:42.049Z,151621.31
2022-08-19T06:36:50.269Z,151843.91
2022-08-19T06:37:53.539Z,151843.91
2022-08-19T06:38:55.927Z,151724.03
2022-08-19T06:39:58.163Z,151967.50
2022-08-19T06:41:07.512Z,151917.31
2022-08-19T06:42:12.691Z,151957.66
2022-08-19T06:43:16.838Z,151960.13
2022-08-19T06:44:22.514Z,152015.19
2022-08-19T06:45:34.913Z,151978.47
2022-08-19T06:46:41.935Z,151956.44
2022-08-19T06:47:48.155Z,152055.59
2022-08-19T06:48:50.963Z,152154.69
2022-08-19T06:50:05.248Z,152054.38
2022-08-19T06:51:08.711Z,152040.94
2022-08-19T06:52:15.414Z,152225.72
2022-08-19T06:53:19.034Z,152083.75
2022-08-19T06:54:21.534Z,152258.78
2022-08-19T06:55:24.133Z,152369.03
2022-08-19T06:56:37.619Z,152651.97
2022-08-19T06:57:39.895Z,152734.13
2022-08-19T06:58:42.265Z,152764.75
2022-08-19T06:59:44.459Z,153005.03
2022-08-19T07:00:46.622Z,152764.75
2022-08-19T07:01:51.147Z,152906.94
2022-08-19T07:02:59.397Z,153067.56
2022-08-19T07:04:03.385Z,153024.66
2022-08-19T07:05:06.787Z,152857.94
2022-08-19T07:06:41.174Z,152894.69
2022-08-19T07:07:37.876Z,153041.81
2022-08-19T07:08:43.941Z,153127.69
2022-08-19T07:09:51.854Z,153306.75
2022-08-19T07:11:02.291Z,153348.47
2022-08-19T07:12:15.706Z,153454.00
2022-08-19T07:13:17.874Z,152985.41
2022-08-19T07:14:23.351Z,153023.44
2022-08-19T07:15:25.531Z,152696.09
2022-08-19T07:16:29.350Z,152674.03
2022-08-19T07:17:32.124Z,152723.13
2022-08-19T07:18:37.642Z,152651.97
2022-08-19T07:19:42.127Z,152617.69
2022-08-19T07:20:44.379Z,152696.09
2022-08-19T07:21:53.750Z,152612.78
2022-08-19T07:22:56.690Z,152735.34
2022-08-19T07:24:02.950Z,152904.47
2022-08-19T07:25:10.502Z,152997.69
2022-08-19T07:26:15.336Z,152674.03
2022-08-19T07:27:17.986Z,152514.75
2022-08-19T07:28:27.831Z,152415.53
2022-08-19T07:29:33.930Z,152680.16
2022-08-19T07:30:39.082Z,152634.84
2022-08-19T07:31:43.546Z,152429.03
2022-08-19T07:32:45.908Z,152421.63
2022-08-19T07:33:50.161Z,152718.19
2022-08-19T07:34:56.597Z,152620.13
2022-08-19T07:35:59.696Z,152959.66
2022-08-19T07:37:01.906Z,152678.94
2022-08-19T07:38:04.680Z,152734.13
2022-08-19T07:39:13.947Z,153068.78
2022-08-19T07:40:16.427Z,152720.63
2022-08-19T07:41:22.018Z,152688.78
2022-08-19T07:42:24.326Z,152498.88
2022-08-19T07:43:34.868Z,152395.97
2022-08-19T07:45:45.917Z,152544.16
2022-08-19T07:46:53.276Z,152512.31
2022-08-19T07:47:55.987Z,152681.38
2022-08-19T07:48:58.387Z,152752.47
2022-08-19T07:50:00.629Z,152872.63
2022-08-19T07:51:05.218Z,152828.47
2022-08-19T07:52:09.830Z,152446.19
2022-08-19T07:53:13.297Z,152506.19
2022-08-19T07:54:15.579Z,152417.97
2022-08-19T07:55:41.080Z,152704.66
2022-08-19T07:56:44.013Z,152681.38
2022-08-19T07:57:46.222Z,152750.03
2022-08-19T07:58:51.550Z,152933.91
2022-08-19T07:59:53.833Z,152735.34
2022-08-19T08:00:56.146Z,152955.97
2022-08-19T08:02:01.413Z,153117.84
2022-08-19T08:03:03.633Z,153269.94
2022-08-19T08:04:24.509Z,153267.50
2022-08-19T08:05:45.164Z,153250.34
2022-08-19T08:07:05.881Z,153198.78
2022-08-19T08:08:44.429Z,153414.72
2022-08-19T08:09:50.658Z,153746.13
2022-08-19T08:10:54.601Z,153832.13
2022-08-19T08:12:13.310Z,153922.97
2022-08-19T08:13:27.368Z,153656.53
2022-08-19T08:14:39.626Z,153731.44
2022-08-19T08:15:46.384Z,153832.13
2022-08-19T08:16:51.138Z,153694.56
2022-08-19T08:17:53.328Z,154023.69
2022-08-19T08:18:55.572Z,154063.03
2022-08-19T08:19:58.901Z,153910.66
2022-08-19T08:21:01.069Z,154035.97
2022-08-19T08:22:04.481Z,154133.03
2022-08-19T08:23:26.070Z,154235.00
2022-08-19T08:24:31.646Z,154361.59
2022-08-19T08:25:34.553Z,154165.00
2022-08-19T08:26:37.916Z,153846.88
2022-08-19T08:27:50.943Z,153517.84
2022-08-19T08:28:57.508Z,153458.91
2022-08-19T08:29:59.689Z,153574.25
2022-08-19T08:31:09.494Z,153544.78
2022-08-19T08:32:13.984Z,153574.25
2022-08-19T08:33:33.399Z,153645.44
2022-08-19T08:34:37.974Z,153634.44
2022-08-19T08:35:42.868Z,153566.91
2022-08-19T08:36:46.859Z,153635.66
2022-08-19T08:37:51.412Z,153692.13
2022-08-19T08:40:11.306Z,153716.72
2022-08-19T08:41:47.370Z,153839.47
2022-08-19T08:43:22.340Z,153910.66
2022-08-19T08:44:39.091Z,154134.25
2022-08-19T08:45:55.953Z,154099.84
2022-08-19T08:47:04.578Z,153989.31
2022-08-19T08:48:24.158Z,154088.81
2022-08-19T08:49:29.285Z,154114.63
2022-08-19T08:50:42.940Z,154153.97
2022-08-19T08:51:59.648Z,154109.66
2022-08-19T08:53:05.582Z,153986.88
2022-08-19T08:54:12.739Z,154005.25
2022-08-19T08:55:21.699Z,153962.28
2022-08-19T08:56:24.046Z,153922.97
2022-08-19T08:57:38.561Z,154008.94
2022-08-19T08:58:59.137Z,154001.59
2022-08-19T09:00:06.861Z,153856.69
2022-08-19T09:01:18.138Z,153608.66
2022-08-19T09:02:20.681Z,153679.81
2022-08-19T09:03:26.279Z,153701.97
2022-08-19T09:04:29.344Z,153824.75
2022-08-19T09:05:48.558Z,153628.28
2022-08-19T09:07:34.933Z,153706.88
2022-08-19T09:08:51.357Z,153681.09
2022-08-19T09:10:19.308Z,153873.84
2022-08-19T09:11:44.645Z,154017.56
2022-08-19T09:13:09.511Z,154163.78
2022-08-19T09:14:34.992Z,154070.38
2022-08-19T09:15:45.396Z,154276.84
2022-08-19T09:16:50.498Z,154048.31
2022-08-19T09:17:52.853Z,154271.91
2022-08-19T09:18:59.071Z,154303.84
2022-08-19T09:20:17.026Z,154426.75
2022-08-19T09:21:25.736Z,154585.31
2022-08-19T09:22:33.115Z,154527.56
2022-08-19T09:23:38.420Z,154206.75
2022-08-19T09:24:41.767Z,154355.44
2022-08-19T09:25:45.247Z,154453.78
2022-08-19T09:26:52.504Z,154635.75
2022-08-19T09:28:02.781Z,154953.06
2022-08-19T09:29:06.720Z,155177.00
2022-08-19T09:30:11.832Z,154865.72
2022-08-19T09:31:24.095Z,154930.91
2022-08-19T09:32:27.466Z,155041.66
2022-08-19T09:33:30.138Z,155162.22
2022-08-19T09:34:38.054Z,154965.34
2022-08-19T09:35:52.917Z,154842.38
2022-08-19T09:36:59.134Z,154982.59
2022-08-19T09:38:01.439Z,154962.91
2022-08-19T09:39:16.109Z,154933.38
2022-08-19T09:40:19.587Z,154985.03
2022-08-19T09:41:24.838Z,154905.09
2022-08-19T09:42:35.155Z,154921.09
2022-08-19T09:43:44.504Z,155023.19
2022-08-19T09:44:50.144Z,154643.16
2022-08-19T09:45:53.383Z,154591.50
2022-08-19T09:46:55.592Z,154198.16
2022-08-19T09:47:57.918Z,154443.97
2022-08-19T09:49:03.002Z,154437.78
2022-08-19T09:50:12.083Z,154622.25
2022-08-19T09:51:22.722Z,154357.91
2022-08-19T09:52:25.648Z,154586.56
2022-08-19T09:53:36.448Z,154916.19
2022-08-19T09:54:40.197Z,155132.69
2022-08-19T09:55:46.603Z,155135.16
2022-08-19T09:56:48.928Z,154980.13
2022-08-19T09:57:51.135Z,154891.53
2022-08-19T09:58:53.359Z,154857.13
2022-08-19T09:59:55.683Z,154591.50
2022-08-19T10:01:00.371Z,154815.31
2022-08-19T10:02:03.638Z,154803.00
2022-08-19T10:03:07.035Z,154905.09
2022-08-19T10:04:19.818Z,154879.25
2022-08-19T10:05:43.048Z,154974.00
2022-08-19T10:06:45.931Z,154894.00
2022-08-19T10:07:48.870Z,155053.94
2022-08-19T10:08:52.614Z,154734.13
2022-08-19T10:09:55.393Z,154903.84
2022-08-19T10:10:58.975Z,155113.03
2022-08-19T10:12:02.504Z,154994.88
2022-08-19T10:13:04.995Z,154874.34
2022-08-19T10:14:08.002Z,154359.13
2022-08-19T10:15:10.643Z,154205.53
2022-08-19T10:16:16.863Z,154677.56
2022-08-19T10:17:20.794Z,154577.97
2022-08-19T10:18:26.332Z,154844.84
2022-08-19T10:19:33.386Z,154914.97
2022-08-19T10:20:36.682Z,155126.53
2022-08-19T10:21:41.275Z,155177.00
2022-08-19T10:22:44.354Z,155297.56
2022-08-19T10:23:49.426Z,155349.31
2022-08-19T10:24:53.527Z,154842.38
2022-08-19T10:25:55.714Z,154898.91
2022-08-19T10:26:59.777Z,155181.91
2022-08-19T10:28:02.284Z,155403.50
2022-08-19T10:29:05.969Z,155181.91
2022-08-19T10:30:12.394Z,154847.28
2022-08-19T10:31:20.382Z,155076.09
2022-08-19T10:32:46.436Z,154938.28
2022-08-19T10:33:53.889Z,154735.34
2022-08-19T10:34:57.409Z,155162.22
2022-08-19T10:36:01.461Z,155037.94
2022-08-19T10:37:06.586Z,155222.53
2022-08-19T10:38:13.428Z,154735.34
2022-08-19T10:39:15.731Z,155066.22
2022-08-19T10:40:17.990Z,155124.09
2022-08-19T10:41:24.040Z,155205.34
2022-08-19T10:42:26.225Z,154684.94
2022-08-19T10:43:28.374Z,154788.22
2022-08-19T10:44:32.619Z,154655.44
2022-08-19T10:45:34.958Z,154410.81
2022-08-19T10:46:46.080Z,154312.47
2022-08-19T10:47:50.591Z,154031.06
2022-08-19T10:48:53.460Z,154301.38
2022-08-19T10:50:15.398Z,154060.56
2022-08-19T10:51:37.067Z,154426.75
2022-08-19T10:52:50.811Z,154771.00
2022-08-19T10:53:53.291Z,154532.47
2022-08-19T10:55:14.202Z,154887.84
2022-08-19T10:56:35.202Z,155094.53
2022-08-19T10:57:59.449Z,155113.03
2022-08-19T10:59:00.039Z,155241.00
2022-08-19T11:00:02.315Z,154762.41
2022-08-19T11:01:05.037Z,154603.78
2022-08-19T11:02:11.024Z,154747.66
2022-08-19T11:03:13.568Z,154439.03
2022-08-19T11:04:18.447Z,154472.19
2022-08-19T11:05:20.609Z,154231.31
2022-08-19T11:06:26.825Z,154355.44
2022-08-19T11:07:29.001Z,154232.56
2022-08-19T11:08:32.116Z,154533.69
2022-08-19T11:09:41.544Z,154871.84
2022-08-19T11:10:43.757Z,154672.59
2022-08-19T11:11:54.242Z,154793.13
2022-08-19T11:12:57.543Z,155013.38
2022-08-19T11:13:59.779Z,155334.50
2022-08-19T11:15:02.529Z,155359.13
2022-08-19T11:16:14.225Z,155738.38
2022-08-19T11:17:16.780Z,155669.41
2022-08-19T11:18:18.971Z,155540.13
2022-08-19T11:19:21.394Z,155767.94
2022-08-19T11:20:24.565Z,155797.47
2022-08-19T11:21:33.942Z,156139.94
2022-08-19T11:22:40.932Z,155753.13
2022-08-19T11:23:44.902Z,156144.84
2022-08-19T11:24:47.103Z,156125.13
2022-08-19T11:25:50.419Z,156312.44
2022-08-19T11:26:58.584Z,156393.78
2022-08-19T11:28:00.743Z,156049.97
2022-08-19T11:29:05.454Z,155981.03
2022-08-19T11:30:08.637Z,155647.25
2022-08-19T11:31:18.775Z,155611.56
2022-08-19T11:32:21.095Z,155774.06
2022-08-19T11:33:23.311Z,155605.41
2022-08-19T11:34:28.556Z,155506.91
2022-08-19T11:35:30.812Z,155305.03
2022-08-19T11:36:33.571Z,155287.75
2022-08-19T11:37:38.995Z,155563.47
2022-08-19T11:38:41.209Z,155724.81
2022-08-19T11:39:43.435Z,155547.50
2022-08-19T11:40:59.131Z,155585.66
2022-08-19T11:42:03.682Z,155706.38
2022-08-19T11:43:05.850Z,155806.13
2022-08-19T11:44:10.901Z,155838.13
2022-08-19T11:45:14.872Z,155921.88
2022-08-19T11:46:18.001Z,156130.06
2022-08-19T11:47:20.405Z,155636.19
2022-08-19T11:48:23.576Z,155716.22
2022-08-19T11:49:25.785Z,155753.13
2022-08-19T11:50:28.072Z,155434.22
2022-08-19T11:51:31.911Z,155627.53
2022-08-19T11:52:34.402Z,155718.66
2022-08-19T11:53:37.055Z,155735.91
2022-08-19T11:54:39.417Z,155457.63
2022-08-19T11:55:44.199Z,155398.50
2022-08-19T11:56:47.354Z,155653.38
2022-08-19T11:57:49.626Z,155637.41
2022-08-19T11:58:53.159Z,155817.19
2022-08-19T11:59:55.313Z,155963.72
2022-08-19T12:00:57.730Z,155896.00
2022-08-19T12:02:00.177Z,155952.66
2022-08-19T12:03:02.766Z,155487.16
2022-08-19T12:04:06.183Z,155886.16
2022-08-19T12:05:12.204Z,155738.38
2022-08-19T12:06:19.919Z,155881.22
2022-08-19T12:07:22.118Z,156001.97
2022-08-19T12:08:24.288Z,156127.59
2022-08-19T12:09:26.796Z,155723.59
2022-08-19T12:10:33.928Z,155723.59
2022-08-19T12:11:37.816Z,155511.81
2022-08-19T12:12:43.603Z,154913.72
2022-08-19T12:13:46.800Z,155368.97
2022-08-19T12:14:48.974Z,155387.44
2022-08-19T12:15:51.282Z,155211.47
2022-08-19T12:16:53.528Z,154801.78
2022-08-19T12:17:58.445Z,155015.84
2022-08-19T12:19:04.798Z,154693.56
2022-08-19T12:20:09.755Z,154967.81
2022-08-19T12:21:14.518Z,155270.53
2022-08-19T12:22:16.682Z,155610.31
2022-08-19T12:23:18.941Z,155718.66
2022-08-19T12:24:24.143Z,155935.44
2022-08-19T12:25:26.528Z,155997.00
2022-08-19T12:26:30.537Z,156109.16
2022-08-19T12:27:40.357Z,155873.81
2022-08-19T12:28:44.124Z,155644.78
2022-08-19T12:29:46.293Z,155228.69
2022-08-19T12:30:51.013Z,155474.88
2022-08-19T12:31:53.170Z,155494.53
2022-08-19T12:32:55.591Z,155313.63
2022-08-19T12:33:58.030Z,155200.34
2022-08-19T12:35:00.374Z,154675.09
2022-08-19T12:36:05.517Z,154891.53
2022-08-19T12:37:08.535Z,154903.84
2022-08-19T12:38:11.848Z,154976.44
2022-08-19T12:39:14.010Z,154766.06
2022-08-19T12:40:18.936Z,154780.84
2022-08-19T12:41:23.252Z,154757.50
2022-08-19T12:42:25.645Z,155002.22
2022-08-19T12:43:31.287Z,154859.56